map of NIB home
NIB - Airport
Location
City:  Nikolai, Alaska, United States
ICAO:PAFS
IATA:NIB
FAA LID:FSP

Details
Type:Airport (Airfield)
Use:Public/Civil
Latitude:6301'07"N (63.018556)
Longitude:15421'30"W (-154.358443)
Datum:WGS 1984
Elevation:447 ft (136 m)
Variation:14.90E (WMM2015 magnetic declination)
-0.36 annual change
Runways:1
Longest:4021 × 75 ft (1226 × 23 m)

Time
Time Zone:UTC-9 (DST-8)
Local Time:

Weather
METAR:PAFS 180501Z AUTO 35004KT 10SM OVC040 M01/M04 A2943 RMK AO2 SLP986 T10061044 FZRANO

Related Locations
Nearby:
Farthest:NZSP: 10559 mi / 16992 km
Amundsen-Scott South Pole Station [Jack F. Paulus Skiway], AQ

Find:

   beyond  
but within

Other Information
Maps:
NOTAMs:
Links:
Sources:

  
flag of United States
flag of Alaska
  

Sectional Chart

Flight Planning
at skyvector.com

Satellite Image

Google Maps Satellite view

 

Copyright © 2004-2017 Karl L. Swartz. All rights reserved.
The Great Circle Mapper name and logo are trademarks of the Great Circle Mapper.
All other trademarks mentioned herein belong to their respective owners.
Please see credits for attibutions and further copyright information.

  Follow gcmap on Facebook Follow gcmap on Twitter Follow gcmap on Google+ GCmap on LinkedIn

hCard Microformat

Geo Microformat